createdAt,value
2022-10-01T00:00:38.997Z,9.308978
2022-10-01T00:01:38.979Z,9.308971
2022-10-01T00:02:39.142Z,9.308958
2022-10-01T00:03:38.979Z,9.308934
2022-10-01T00:04:38.954Z,9.308936
2022-10-01T00:05:39.058Z,9.309032
2022-10-01T00:06:39.019Z,9.308938
2022-10-01T00:07:39.113Z,9.308952
2022-10-01T00:08:39.010Z,9.308991
2022-10-01T00:09:39.030Z,9.309016
2022-10-01T00:10:38.992Z,9.309114
2022-10-01T00:11:39.097Z,9.309016
2022-10-01T00:12:39.004Z,9.309040
2022-10-01T00:13:38.960Z,9.309120
2022-10-01T00:14:39.050Z,9.309196
2022-10-01T00:15:39.047Z,9.309140
2022-10-01T00:16:39.170Z,9.308970
2022-10-01T00:17:38.959Z,9.308928
2022-10-01T00:18:38.852Z,9.308968
2022-10-01T00:19:38.857Z,9.308940
2022-10-01T00:20:38.981Z,9.308970
2022-10-01T00:21:38.858Z,9.308927
2022-10-01T00:22:38.890Z,9.309054
2022-10-01T00:23:38.827Z,9.309157
2022-10-01T00:24:38.908Z,9.309072
2022-10-01T00:25:38.884Z,9.308979
2022-10-01T00:26:38.862Z,9.309060
2022-10-01T00:27:38.928Z,9.309107
2022-10-01T00:28:38.875Z,9.309019
2022-10-01T00:29:38.901Z,9.309040
2022-10-01T00:30:40.523Z,9.308950
2022-10-01T00:31:40.086Z,9.309139
2022-10-01T00:32:38.847Z,9.308972
2022-10-01T00:33:38.931Z,9.308982
2022-10-01T00:34:38.828Z,9.309132
2022-10-01T00:35:38.829Z,9.309074
2022-10-01T00:36:38.823Z,9.309046
2022-10-01T00:37:38.805Z,9.309141
2022-10-01T00:38:38.797Z,9.309095
2022-10-01T00:39:38.696Z,9.309149
2022-10-01T00:40:38.800Z,9.309241
2022-10-01T00:41:38.821Z,9.309132
2022-10-01T00:42:38.786Z,9.309024
2022-10-01T00:43:38.964Z,9.308991
2022-10-01T00:44:38.738Z,9.309157
2022-10-01T00:45:38.808Z,9.309282
2022-10-01T00:46:38.832Z,9.309205
2022-10-01T00:47:38.744Z,9.309249
2022-10-01T00:48:38.733Z,9.309366
2022-10-01T00:49:38.786Z,9.308963
2022-10-01T00:50:38.737Z,9.308961
2022-10-01T00:51:38.707Z,9.308962
2022-10-01T00:52:38.679Z,9.308994
2022-10-01T00:53:38.598Z,9.309119
2022-10-01T00:54:38.662Z,9.309180
2022-10-01T00:55:38.629Z,9.309093
2022-10-01T00:56:38.577Z,9.308912
2022-10-01T00:57:38.600Z,9.308917
2022-10-01T00:58:38.582Z,9.308964
2022-10-01T00:59:39.868Z,9.309029
2022-10-01T01:00:38.699Z,9.309163
2022-10-01T01:01:38.763Z,9.308969
2022-10-01T01:02:38.801Z,9.309273
2022-10-01T01:03:38.638Z,9.309279
2022-10-01T01:04:38.637Z,9.309279
2022-10-01T01:05:38.674Z,9.309154
2022-10-01T01:06:38.648Z,9.309045
2022-10-01T01:07:38.639Z,9.308950
2022-10-01T01:08:38.636Z,9.308927
2022-10-01T01:09:39.667Z,9.308991
2022-10-01T01:10:38.582Z,9.309057
2022-10-01T01:11:38.549Z,9.308962
2022-10-01T01:12:38.576Z,9.309008
2022-10-01T01:13:38.470Z,9.308887
2022-10-01T01:14:38.451Z,9.308843
2022-10-01T01:15:38.521Z,9.308990
2022-10-01T01:16:38.486Z,9.308961
2022-10-01T01:17:38.491Z,9.308949
2022-10-01T01:18:38.430Z,9.309050
2022-10-01T01:19:38.464Z,9.309057
2022-10-01T01:20:38.453Z,9.309009
2022-10-01T01:21:38.491Z,9.308958
2022-10-01T01:22:38.514Z,9.308974
2022-10-01T01:23:38.507Z,9.309106
2022-10-01T01:24:38.464Z,9.309159
2022-10-01T01:25:38.489Z,9.309191
2022-10-01T01:26:38.534Z,9.308962
2022-10-01T01:27:38.592Z,9.309212
2022-10-01T01:28:38.520Z,9.309066
2022-10-01T01:29:38.502Z,9.309129
2022-10-01T01:30:38.465Z,9.309341
2022-10-01T01:31:38.641Z,9.309084
2022-10-01T01:32:38.504Z,9.309108
2022-10-01T01:33:38.411Z,9.309119
2022-10-01T01:34:38.406Z,9.309166
2022-10-01T01:35:38.313Z,9.309145
2022-10-01T01:36:38.324Z,9.309072
2022-10-01T01:37:38.412Z,9.309128
2022-10-01T01:38:38.360Z,9.309111
2022-10-01T01:39:38.364Z,9.309093
2022-10-01T01:40:38.378Z,9.309088
2022-10-01T01:41:38.393Z,9.309061
2022-10-01T01:42:38.362Z,9.309134
2022-10-01T01:43:38.388Z,9.309167
2022-10-01T01:44:38.406Z,9.309252
2022-10-01T01:45:38.400Z,9.309165
2022-10-01T01:46:38.362Z,9.309205
2022-10-01T01:47:38.333Z,9.309175
2022-10-01T01:48:38.379Z,9.309156
2022-10-01T01:49:38.371Z,9.309112
2022-10-01T01:50:38.352Z,9.309098
2022-10-01T01:51:38.223Z,9.309104
2022-10-01T01:52:38.182Z,9.309056
2022-10-01T01:53:38.304Z,9.309140
2022-10-01T01:54:38.209Z,9.309089
2022-10-01T01:55:38.247Z,9.309078
2022-10-01T01:56:38.212Z,9.309039
2022-10-01T01:57:38.286Z,9.309093
2022-10-01T01:58:38.241Z,9.309083
2022-10-01T01:59:38.280Z,9.309080
2022-10-01T02:00:38.243Z,9.309122
2022-10-01T02:01:38.567Z,9.309097
2022-10-01T02:02:38.293Z,9.309176
2022-10-01T02:03:38.275Z,9.309088
2022-10-01T02:04:38.205Z,9.309024
2022-10-01T02:05:38.605Z,9.309102
2022-10-01T02:06:38.203Z,9.309156
2022-10-01T02:07:38.148Z,9.309109
2022-10-01T02:08:38.189Z,9.309233
2022-10-01T02:09:38.094Z,9.309143
2022-10-01T02:10:38.113Z,9.309112
2022-10-01T02:11:38.202Z,9.309182
2022-10-01T02:12:38.099Z,9.309205
2022-10-01T02:13:39.200Z,9.309168
2022-10-01T02:14:38.108Z,9.309117
2022-10-01T02:15:38.181Z,9.309063
2022-10-01T02:16:38.110Z,9.309064
2022-10-01T02:17:38.195Z,9.309112
2022-10-01T02:18:38.169Z,9.309168
2022-10-01T02:19:38.061Z,9.309135
2022-10-01T02:20:38.089Z,9.309202
2022-10-01T02:21:38.067Z,9.309137
2022-10-01T02:22:38.069Z,9.309031
2022-10-01T02:23:38.067Z,9.309046
2022-10-01T02:24:38.068Z,9.309093
2022-10-01T02:25:38.006Z,9.309136
2022-10-01T02:26:37.999Z,9.309147
2022-10-01T02:27:37.968Z,9.309243
2022-10-01T02:28:38.020Z,9.309197
2022-10-01T02:29:37.978Z,9.309156
2022-10-01T02:30:37.990Z,9.309205
2022-10-01T02:31:38.575Z,9.309177
2022-10-01T02:32:38.002Z,9.309166
2022-10-01T02:33:38.006Z,9.309124
2022-10-01T02:34:38.037Z,9.309147
2022-10-01T02:35:37.959Z,9.309204
2022-10-01T02:36:38.028Z,9.309216
2022-10-01T02:37:37.992Z,9.309134
2022-10-01T02:38:38.026Z,9.309183
2022-10-01T02:39:37.977Z,9.309238
2022-10-01T02:40:37.945Z,9.309105
2022-10-01T02:41:37.927Z,9.309197
2022-10-01T02:42:37.972Z,9.309167
2022-10-01T02:43:42.608Z,9.309132
2022-10-01T02:44:39.970Z,9.309166
2022-10-01T02:45:37.892Z,9.309147
2022-10-01T02:46:37.843Z,9.309116
2022-10-01T02:47:37.897Z,9.308995
2022-10-01T02:48:37.908Z,9.309072
2022-10-01T02:49:37.799Z,9.309197
2022-10-01T02:50:37.834Z,9.309191
2022-10-01T02:51:37.842Z,9.309207
2022-10-01T02:52:37.812Z,9.309117
2022-10-01T02:53:37.871Z,9.309161
2022-10-01T02:54:37.896Z,9.309217
2022-10-01T02:55:37.936Z,9.309072
2022-10-01T02:56:45.947Z,9.309129
2022-10-01T02:57:38.778Z,9.309148
2022-10-01T02:58:37.860Z,9.309163
2022-10-01T02:59:37.905Z,9.309135
2022-10-01T03:00:37.852Z,9.309158
2022-10-01T03:01:38.123Z,9.309209
2022-10-01T03:02:37.847Z,9.309130
2022-10-01T03:03:37.857Z,9.309120
2022-10-01T03:04:37.812Z,9.309149
2022-10-01T03:05:37.741Z,9.309103
2022-10-01T03:06:37.691Z,9.309074
2022-10-01T03:07:37.680Z,9.309261
2022-10-01T03:08:37.762Z,9.309267
2022-10-01T03:09:37.674Z,9.309199
2022-10-01T03:10:37.750Z,9.309296
2022-10-01T03:11:37.663Z,9.309341
2022-10-01T03:12:38.655Z,9.309284
2022-10-01T03:13:37.679Z,9.309311
2022-10-01T03:14:37.708Z,9.309298
2022-10-01T03:15:37.846Z,9.309315
2022-10-01T03:16:37.677Z,9.309233
2022-10-01T03:17:37.793Z,9.309073
2022-10-01T03:18:37.699Z,9.309032
2022-10-01T03:19:37.679Z,9.309113
2022-10-01T03:20:37.713Z,9.309116
2022-10-01T03:21:37.677Z,9.309327
2022-10-01T03:22:37.729Z,9.309116
2022-10-01T03:23:37.647Z,9.309089
2022-10-01T03:24:37.709Z,9.309118
2022-10-01T03:25:37.616Z,9.309052
2022-10-01T03:26:37.691Z,9.309030
2022-10-01T03:27:37.563Z,9.309030
2022-10-01T03:28:37.531Z,9.309042
2022-10-01T03:29:37.567Z,9.308965
2022-10-01T03:30:37.535Z,9.308851
2022-10-01T03:31:37.885Z,9.308826
2022-10-01T03:32:37.543Z,9.308891
2022-10-01T03:33:37.494Z,9.308951
2022-10-01T03:34:37.465Z,9.309023
2022-10-01T03:35:37.596Z,9.308933
2022-10-01T03:36:37.550Z,9.308949
2022-10-01T03:37:37.609Z,9.309077
2022-10-01T03:38:37.547Z,9.309029
2022-10-01T03:39:37.534Z,9.309031
2022-10-01T03:40:37.520Z,9.308926
2022-10-01T03:41:37.567Z,9.309011
2022-10-01T03:42:37.629Z,9.309020
2022-10-01T03:43:37.539Z,9.309058
2022-10-01T03:44:37.508Z,9.309059
2022-10-01T03:45:37.579Z,9.309196
2022-10-01T03:46:37.397Z,9.309030
2022-10-01T03:47:37.390Z,9.308969
2022-10-01T03:48:37.432Z,9.309079
2022-10-01T03:49:37.476Z,9.308990
2022-10-01T03:50:37.416Z,9.308982
2022-10-01T03:51:37.746Z,9.309072
2022-10-01T03:52:37.372Z,9.309060
2022-10-01T03:53:37.487Z,9.309108
2022-10-01T03:54:37.408Z,9.309073
2022-10-01T03:55:37.398Z,9.308971
2022-10-01T03:56:37.418Z,9.308998
2022-10-01T03:57:37.391Z,9.309018
2022-10-01T03:58:37.426Z,9.308961
2022-10-01T03:59:37.429Z,9.309022
2022-10-01T04:00:37.423Z,9.309093
2022-10-01T04:01:37.810Z,9.308981
2022-10-01T04:02:37.515Z,9.309005
2022-10-01T04:03:37.257Z,9.309008
2022-10-01T04:04:37.287Z,9.309030
2022-10-01T04:05:37.259Z,9.308996
2022-10-01T04:06:37.255Z,9.309016
2022-10-01T04:07:37.276Z,9.309008
2022-10-01T04:08:37.248Z,9.308991
2022-10-01T04:09:37.298Z,9.308944
2022-10-01T04:10:37.246Z,9.309021
2022-10-01T04:11:37.454Z,9.308996
2022-10-01T04:12:37.200Z,9.309005
2022-10-01T04:13:37.323Z,9.308997
2022-10-01T04:14:37.283Z,9.308955
2022-10-01T04:15:37.697Z,9.308956
2022-10-01T04:16:37.357Z,9.308945
2022-10-01T04:17:37.261Z,9.309033
2022-10-01T04:18:37.305Z,9.309022
2022-10-01T04:19:37.316Z,9.308996
2022-10-01T04:20:37.307Z,9.309115
2022-10-01T04:21:37.671Z,9.309148
2022-10-01T04:22:58.246Z,9.309041
2022-10-01T04:23:37.131Z,9.309007
2022-10-01T04:24:38.181Z,9.308989
2022-10-01T04:25:37.232Z,9.308931
2022-10-01T04:26:37.142Z,9.308919
2022-10-01T04:27:37.193Z,9.308976
2022-10-01T04:28:37.267Z,9.309136
2022-10-01T04:29:40.204Z,9.308931
2022-10-01T04:30:38.151Z,9.308936
2022-10-01T04:31:37.454Z,9.308907
2022-10-01T04:32:37.070Z,9.308921
2022-10-01T04:33:37.155Z,9.308975
2022-10-01T04:34:37.068Z,9.308997
2022-10-01T04:35:37.068Z,9.309093
2022-10-01T04:36:37.027Z,9.309071
2022-10-01T04:37:37.036Z,9.309108
2022-10-01T04:38:37.066Z,9.309048
2022-10-01T04:39:37.085Z,9.309068
2022-10-01T04:40:37.113Z,9.309197
2022-10-01T04:41:37.381Z,9.309158
2022-10-01T04:42:37.129Z,9.309100
2022-10-01T04:43:37.093Z,9.309124
2022-10-01T04:44:36.960Z,9.309157
2022-10-01T04:45:37.161Z,9.309163
2022-10-01T04:46:37.102Z,9.309082
2022-10-01T04:47:37.771Z,9.309131
2022-10-01T04:48:38.075Z,9.309156
2022-10-01T04:49:37.115Z,9.308955
2022-10-01T04:50:36.923Z,9.309033
2022-10-01T04:51:37.273Z,9.309074
2022-10-01T04:52:37.108Z,9.309075
2022-10-01T04:53:36.916Z,9.309093
2022-10-01T04:54:37.000Z,9.309050
2022-10-01T04:56:14.110Z,9.309081
2022-10-01T04:56:37.879Z,9.309098
2022-10-01T04:57:37.026Z,9.309061
2022-10-01T04:58:36.868Z,9.309104
2022-10-01T04:59:36.906Z,9.309090
2022-10-01T05:00:36.915Z,9.309052
2022-10-01T05:01:37.428Z,9.309066
2022-10-01T05:02:36.887Z,9.309061
2022-10-01T05:03:36.848Z,9.309112
2022-10-01T05:04:36.834Z,9.309095
2022-10-01T05:05:36.846Z,9.309030
2022-10-01T05:06:36.806Z,9.309042
2022-10-01T05:07:36.937Z,9.309026
2022-10-01T05:08:36.885Z,9.309012
2022-10-01T05:09:36.931Z,9.309128
2022-10-01T05:10:36.943Z,9.309101
2022-10-01T05:11:37.033Z,9.309035
2022-10-01T05:12:36.882Z,9.309033
2022-10-01T05:13:36.925Z,9.309022
2022-10-01T05:14:36.846Z,9.308989
2022-10-01T05:15:36.995Z,9.309043
2022-10-01T05:16:36.841Z,9.309065
2022-10-01T05:17:36.747Z,9.309103
2022-10-01T05:18:37.009Z,9.309090
2022-10-01T05:19:36.725Z,9.309011
2022-10-01T05:20:36.760Z,9.309032
2022-10-01T05:21:37.237Z,9.309031
2022-10-01T05:22:36.712Z,9.309111
2022-10-01T05:23:36.705Z,9.309091
2022-10-01T05:24:36.682Z,9.309037
2022-10-01T05:25:36.679Z,9.309054
2022-10-01T05:26:36.707Z,9.309011
2022-10-01T05:27:36.665Z,9.309033
2022-10-01T05:28:36.731Z,9.309019
2022-10-01T05:29:36.665Z,9.309057
2022-10-01T05:30:36.843Z,9.309094
2022-10-01T05:31:37.111Z,9.308971
2022-10-01T05:32:36.641Z,9.308963
2022-10-01T05:33:36.770Z,9.309006
2022-10-01T05:34:36.764Z,9.309072
2022-10-01T05:35:36.630Z,9.309095
2022-10-01T05:36:36.726Z,9.309056
2022-10-01T05:37:36.737Z,9.309051
2022-10-01T05:38:36.599Z,9.309106
2022-10-01T05:39:36.684Z,9.309041
2022-10-01T05:40:36.604Z,9.309026
2022-10-01T05:41:36.873Z,9.309018
2022-10-01T05:42:36.604Z,9.308996
2022-10-01T05:43:36.573Z,9.308867
2022-10-01T05:44:36.533Z,9.309007
2022-10-01T05:45:36.559Z,9.309039
2022-10-01T05:46:36.536Z,9.309115
2022-10-01T05:47:36.520Z,9.309117
2022-10-01T05:48:36.556Z,9.309054
2022-10-01T05:49:36.529Z,9.309072
2022-10-01T05:50:36.589Z,9.309060
2022-10-01T05:51:36.850Z,9.309080
2022-10-01T05:52:36.561Z,9.309020
2022-10-01T05:53:36.630Z,9.309056
2022-10-01T05:54:36.505Z,9.309007
2022-10-01T05:55:36.579Z,9.308929
2022-10-01T05:56:36.551Z,9.308993
2022-10-01T05:57:36.449Z,9.308973
2022-10-01T05:58:36.544Z,9.309065
2022-10-01T05:59:36.578Z,9.309094
2022-10-01T06:00:36.514Z,9.308950
2022-10-01T06:01:36.876Z,9.309061
2022-10-01T06:02:36.646Z,9.309086
2022-10-01T06:03:36.483Z,9.309115
2022-10-01T06:04:41.025Z,9.308945
2022-10-01T06:05:37.381Z,9.308926
2022-10-01T06:06:36.385Z,9.308921
2022-10-01T06:07:36.377Z,9.309058
2022-10-01T06:08:36.487Z,9.309051
2022-10-01T06:09:36.365Z,9.308973
2022-10-01T06:10:36.548Z,9.309050
2022-10-01T06:11:36.841Z,9.309066
2022-10-01T06:12:36.358Z,9.309076
2022-10-01T06:13:36.439Z,9.309114
2022-10-01T06:14:36.444Z,9.309070
2022-10-01T06:15:36.381Z,9.309082
2022-10-01T06:16:36.443Z,9.309150
2022-10-01T06:17:36.387Z,9.308763
2022-10-01T06:18:36.287Z,9.308934
2022-10-01T06:19:36.389Z,9.308965
2022-10-01T06:20:36.447Z,9.308839
2022-10-01T06:21:36.742Z,9.308919
2022-10-01T06:22:36.461Z,9.309037
2022-10-01T06:23:36.426Z,9.309082
2022-10-01T06:24:36.261Z,9.309030
2022-10-01T06:25:36.290Z,9.308994
2022-10-01T06:26:36.650Z,9.308974
2022-10-01T06:27:36.226Z,9.308918
2022-10-01T06:28:37.397Z,9.308960
2022-10-01T06:29:36.215Z,9.308967
2022-10-01T06:30:36.256Z,9.308968
2022-10-01T06:31:36.706Z,9.309024
2022-10-01T06:32:36.285Z,9.309047
2022-10-01T06:33:36.225Z,9.309103
2022-10-01T06:34:36.345Z,9.309031
2022-10-01T06:35:36.288Z,9.308994
2022-10-01T06:36:36.162Z,9.309054
2022-10-01T06:37:36.290Z,9.309117
2022-10-01T06:38:36.251Z,9.309227
2022-10-01T06:39:36.173Z,9.309269
2022-10-01T06:40:36.308Z,9.309153
2022-10-01T06:41:36.574Z,9.309084
2022-10-01T06:42:36.199Z,9.309096
2022-10-01T06:43:36.250Z,9.309114
2022-10-01T06:44:36.198Z,9.309069
2022-10-01T06:45:36.272Z,9.309052
2022-10-01T06:46:36.207Z,9.309079
2022-10-01T06:47:36.122Z,9.309091
2022-10-01T06:48:36.139Z,9.309108
2022-10-01T06:49:36.118Z,9.309093
2022-10-01T06:50:36.154Z,9.309082
2022-10-01T06:51:36.408Z,9.309115
2022-10-01T06:52:36.080Z,9.309112
2022-10-01T06:53:36.114Z,9.309086
2022-10-01T06:54:36.127Z,9.309118
2022-10-01T06:55:36.165Z,9.309123
2022-10-01T06:56:37.130Z,9.309151
2022-10-01T06:57:36.056Z,9.309166
2022-10-01T06:58:36.130Z,9.309150
2022-10-01T06:59:36.219Z,9.309134
2022-10-01T07:00:36.009Z,9.309119
2022-10-01T07:01:36.493Z,9.309086
2022-10-01T07:02:36.149Z,9.309073
2022-10-01T07:03:35.999Z,9.309164
2022-10-01T07:04:36.136Z,9.309199
2022-10-01T07:05:36.036Z,9.309114
2022-10-01T07:06:36.047Z,9.309094
2022-10-01T07:07:36.049Z,9.309091
2022-10-01T07:08:36.034Z,9.309066
2022-10-01T07:09:35.990Z,9.309095
2022-10-01T07:10:36.048Z,9.309077
2022-10-01T07:11:36.317Z,9.309092
2022-10-01T07:12:35.969Z,9.309066
2022-10-01T07:13:35.922Z,9.309065
2022-10-01T07:14:35.874Z,9.309184
2022-10-01T07:15:35.938Z,9.309089
2022-10-01T07:16:35.987Z,9.309049
2022-10-01T07:17:35.894Z,9.309035
2022-10-01T07:18:35.852Z,9.309060
2022-10-01T07:19:36.896Z,9.309050
2022-10-01T07:20:35.889Z,9.309061
2022-10-01T07:21:36.536Z,9.309042
2022-10-01T07:22:35.886Z,9.309057
2022-10-01T07:23:35.945Z,9.309031
2022-10-01T07:24:36.013Z,9.309047
2022-10-01T07:25:35.968Z,9.309093
2022-10-01T07:26:36.135Z,9.309054
2022-10-01T07:27:35.894Z,9.309129
2022-10-01T07:28:35.927Z,9.309134
2022-10-01T07:29:36.008Z,9.309114
2022-10-01T07:30:35.832Z,9.309121
2022-10-01T07:31:36.232Z,9.309127
2022-10-01T07:32:35.901Z,9.309218
2022-10-01T07:33:35.785Z,9.309044
2022-10-01T07:34:35.838Z,9.308984
2022-10-01T07:35:35.843Z,9.309037
2022-10-01T07:36:35.781Z,9.309077
2022-10-01T07:37:35.891Z,9.309097
2022-10-01T07:38:35.853Z,9.309185
2022-10-01T07:39:35.752Z,9.309089
2022-10-01T07:40:35.916Z,9.309018
2022-10-01T07:41:36.143Z,9.308977
2022-10-01T07:42:35.741Z,9.308883
2022-10-01T07:43:35.775Z,9.308942
2022-10-01T07:44:35.734Z,9.309094
2022-10-01T07:45:35.744Z,9.309034
2022-10-01T07:46:35.722Z,9.309001
2022-10-01T07:47:35.716Z,9.309011
2022-10-01T07:48:35.707Z,9.309086
2022-10-01T07:49:36.975Z,9.309121
2022-10-01T07:50:35.801Z,9.309139
2022-10-01T07:51:36.082Z,9.309026
2022-10-01T07:52:35.751Z,9.308964
2022-10-01T07:53:35.801Z,9.308969
2022-10-01T07:54:35.647Z,9.308971
2022-10-01T07:55:35.600Z,9.308947
2022-10-01T07:56:35.737Z,9.308973
2022-10-01T07:57:35.729Z,9.309211
2022-10-01T07:58:35.726Z,9.309238
2022-10-01T07:59:35.771Z,9.309191
2022-10-01T08:00:35.706Z,9.309083
2022-10-01T08:01:36.083Z,9.309063
2022-10-01T08:02:35.710Z,9.308852
2022-10-01T08:03:36.618Z,9.308814
2022-10-01T08:04:35.636Z,9.308974
2022-10-01T08:05:35.681Z,9.309030
2022-10-01T08:06:35.658Z,9.309065
2022-10-01T08:07:35.674Z,9.308937
2022-10-01T08:08:35.614Z,9.308986
2022-10-01T08:09:35.601Z,9.308981
2022-10-01T08:10:35.696Z,9.308936
2022-10-01T08:11:36.042Z,9.308955
2022-10-01T08:12:35.616Z,9.309057
2022-10-01T08:13:35.605Z,9.308993
2022-10-01T08:14:35.585Z,9.309086
2022-10-01T08:15:35.608Z,9.308993
2022-10-01T08:16:35.614Z,9.308982
2022-10-01T08:17:35.582Z,9.309024
2022-10-01T08:18:35.586Z,9.309016
2022-10-01T08:19:35.581Z,9.309037
2022-10-01T08:20:35.454Z,9.309085
2022-10-01T08:21:35.899Z,9.309104
2022-10-01T08:22:39.763Z,9.309014
2022-10-01T08:23:37.453Z,9.309009
2022-10-01T08:24:35.462Z,9.309035
2022-10-01T08:25:35.426Z,9.309146
2022-10-01T08:26:35.841Z,9.309200
2022-10-01T08:27:35.410Z,9.309114
2022-10-01T08:28:35.464Z,9.309089
2022-10-01T08:29:35.482Z,9.309122
2022-10-01T08:30:35.546Z,9.309084
2022-10-01T08:31:35.786Z,9.309033
2022-10-01T08:32:35.537Z,9.309050
2022-10-01T08:33:35.509Z,9.309071
2022-10-01T08:34:35.485Z,9.309064
2022-10-01T08:35:35.446Z,9.309049
2022-10-01T08:36:35.437Z,9.309045
2022-10-01T08:37:35.486Z,9.309059
2022-10-01T08:38:35.487Z,9.309018
2022-10-01T08:39:35.436Z,9.309023
2022-10-01T08:40:35.434Z,9.309046
2022-10-01T08:41:36.184Z,9.309078
2022-10-01T08:42:35.280Z,9.309045
2022-10-01T08:43:35.330Z,9.309043
2022-10-01T08:44:35.294Z,9.308989
2022-10-01T08:45:35.494Z,9.309080
2022-10-01T08:46:35.302Z,9.309060
2022-10-01T08:47:35.253Z,9.309071
2022-10-01T08:48:35.415Z,9.309002
2022-10-01T08:49:35.352Z,9.309030
2022-10-01T08:50:35.327Z,9.309067
2022-10-01T08:51:35.629Z,9.309081
2022-10-01T08:52:35.328Z,9.309060
2022-10-01T08:53:35.329Z,9.309030
2022-10-01T08:54:35.377Z,9.309084
2022-10-01T08:55:35.452Z,9.309095
2022-10-01T08:56:35.277Z,9.309069
2022-10-01T08:57:35.335Z,9.309043
2022-10-01T08:58:35.292Z,9.309040
2022-10-01T08:59:35.360Z,9.309041
2022-10-01T09:00:35.248Z,9.309062
2022-10-01T09:01:35.494Z,9.309041
2022-10-01T09:02:35.204Z,9.309097
2022-10-01T09:03:35.141Z,9.309139
2022-10-01T09:04:35.323Z,9.309098
2022-10-01T09:05:35.349Z,9.309054
2022-10-01T09:06:35.317Z,9.309068
2022-10-01T09:07:35.238Z,9.309065
2022-10-01T09:08:35.284Z,9.309092
2022-10-01T09:09:35.231Z,9.309115
2022-10-01T09:10:35.307Z,9.309045
2022-10-01T09:11:35.476Z,9.309014
2022-10-01T09:12:35.195Z,9.309018
2022-10-01T09:13:35.169Z,9.309044
2022-10-01T09:14:35.193Z,9.309032
2022-10-01T09:15:35.185Z,9.308996
2022-10-01T09:16:35.279Z,9.309004
2022-10-01T09:17:35.155Z,9.309041
2022-10-01T09:18:35.569Z,9.309043
2022-10-01T09:19:35.129Z,9.309082
2022-10-01T09:20:35.120Z,9.309187
2022-10-01T09:21:35.454Z,9.309215
2022-10-01T09:22:35.032Z,9.309119
2022-10-01T09:23:35.152Z,9.309130
2022-10-01T09:24:35.142Z,9.308993
2022-10-01T09:25:35.158Z,9.308989
2022-10-01T09:26:35.110Z,9.309004
2022-10-01T09:27:35.432Z,9.308984
2022-10-01T09:28:35.119Z,9.309068
2022-10-01T09:29:35.155Z,9.309036
2022-10-01T09:30:35.131Z,9.309066
2022-10-01T09:31:35.356Z,9.309012
2022-10-01T09:32:35.197Z,9.308974
2022-10-01T09:33:35.110Z,9.309067
2022-10-01T09:34:35.076Z,9.309094
2022-10-01T09:35:35.041Z,9.309079
2022-10-01T09:36:35.106Z,9.308996
2022-10-01T09:37:35.102Z,9.309010
2022-10-01T09:38:35.087Z,9.308984
2022-10-01T09:39:34.946Z,9.309057
2022-10-01T09:40:34.933Z,9.309083
2022-10-01T09:41:35.215Z,9.309134
2022-10-01T09:42:34.911Z,9.309128
2022-10-01T09:43:35.150Z,9.309052
2022-10-01T09:44:35.015Z,9.309074
2022-10-01T09:45:35.247Z,9.308997
2022-10-01T09:46:34.967Z,9.309139
2022-10-01T09:47:35.330Z,9.308959
2022-10-01T09:48:35.279Z,9.308990
2022-10-01T09:49:34.957Z,9.308947
2022-10-01T09:50:35.006Z,9.309078
2022-10-01T09:51:39.387Z,9.308897
2022-10-01T09:52:37.043Z,9.308939
2022-10-01T09:53:35.062Z,9.308992
2022-10-01T09:54:35.092Z,9.309034
2022-10-01T09:55:34.819Z,9.309088
2022-10-01T09:56:35.115Z,9.309113
2022-10-01T09:57:34.768Z,9.309133
2022-10-01T09:58:34.841Z,9.309396
2022-10-01T09:59:34.934Z,9.309167
2022-10-01T10:00:34.773Z,9.308888
2022-10-01T10:01:35.229Z,9.308877
2022-10-01T10:02:34.858Z,9.308916
2022-10-01T10:03:34.995Z,9.309037
2022-10-01T10:04:34.914Z,9.309005
2022-10-01T10:05:34.928Z,9.308971
2022-10-01T10:06:35.185Z,9.308958
2022-10-01T10:07:34.935Z,9.309046
2022-10-01T10:08:35.193Z,9.308973
2022-10-01T10:09:34.838Z,9.308903
2022-10-01T10:10:35.003Z,9.308982
2022-10-01T10:11:35.332Z,9.309055
2022-10-01T10:12:34.845Z,9.309100
2022-10-01T10:13:34.799Z,9.309253
2022-10-01T10:14:34.802Z,9.309038
2022-10-01T10:15:34.843Z,9.308969
2022-10-01T10:16:35.438Z,9.308958
2022-10-01T10:17:34.752Z,9.308908
2022-10-01T10:18:34.735Z,9.308997
2022-10-01T10:19:34.733Z,9.308994
2022-10-01T10:20:34.760Z,9.309038
2022-10-01T10:21:34.679Z,9.309098
2022-10-01T10:22:34.709Z,9.309106
2022-10-01T10:23:34.642Z,9.308992
2022-10-01T10:24:34.600Z,9.309094
2022-10-01T10:25:34.681Z,9.309116
2022-10-01T10:26:35.232Z,9.309183
2022-10-01T10:27:34.625Z,9.309165
2022-10-01T10:28:38.308Z,9.309100
2022-10-01T10:29:35.690Z,9.309086
2022-10-01T10:30:34.761Z,9.309028
2022-10-01T10:31:34.776Z,9.309118
2022-10-01T10:32:35.185Z,9.309116
2022-10-01T10:33:34.893Z,9.309122
2022-10-01T10:34:34.620Z,9.309079
2022-10-01T10:35:34.666Z,9.309116
2022-10-01T10:36:34.851Z,9.309106
2022-10-01T10:37:34.629Z,9.309045
2022-10-01T10:38:34.613Z,9.309032
2022-10-01T10:39:34.641Z,9.308984
2022-10-01T10:40:34.483Z,9.308930
2022-10-01T10:41:34.701Z,9.309039
2022-10-01T10:42:34.662Z,9.309097
2022-10-01T10:43:34.589Z,9.309062
2022-10-01T10:44:34.519Z,9.309026
2022-10-01T10:45:34.588Z,9.309049
2022-10-01T10:46:34.673Z,9.309045
2022-10-01T10:47:34.670Z,9.309077
2022-10-01T10:48:34.645Z,9.309066
2022-10-01T10:49:34.514Z,9.309056
2022-10-01T10:50:34.530Z,9.309075
2022-10-01T10:51:34.652Z,9.309166
2022-10-01T10:52:34.504Z,9.309134
2022-10-01T10:53:34.512Z,9.309164
2022-10-01T10:54:34.526Z,9.309086
2022-10-01T10:55:34.398Z,9.309207
2022-10-01T10:56:34.586Z,9.309190
2022-10-01T10:57:34.386Z,9.309061
2022-10-01T10:58:34.478Z,9.308847
2022-10-01T10:59:34.516Z,9.308910
2022-10-01T11:00:34.566Z,9.309084
2022-10-01T11:01:34.649Z,9.309105
2022-10-01T11:02:34.376Z,9.309111
2022-10-01T11:03:34.448Z,9.309150
2022-10-01T11:04:34.417Z,9.309146
2022-10-01T11:05:35.096Z,9.309225
2022-10-01T11:06:35.131Z,9.309175
2022-10-01T11:07:34.535Z,9.308992
2022-10-01T11:08:34.560Z,9.309075
2022-10-01T11:09:34.358Z,9.309076
2022-10-01T11:10:34.535Z,9.309183
2022-10-01T11:11:34.491Z,9.309141
2022-10-01T11:12:34.338Z,9.309107
2022-10-01T11:13:34.494Z,9.309163
2022-10-01T11:14:34.487Z,9.309181
2022-10-01T11:15:34.455Z,9.309145
2022-10-01T11:16:34.772Z,9.309203
2022-10-01T11:17:34.240Z,9.309162
2022-10-01T11:18:34.207Z,9.309180
2022-10-01T11:19:34.322Z,9.309189
2022-10-01T11:20:34.337Z,9.309173
2022-10-01T11:21:34.347Z,9.309159
2022-10-01T11:22:34.329Z,9.309170
2022-10-01T11:23:34.480Z,9.309146
2022-10-01T11:24:34.352Z,9.309062
2022-10-01T11:25:34.253Z,9.309106
2022-10-01T11:26:34.541Z,9.309132
2022-10-01T11:27:34.265Z,9.309130
2022-10-01T11:28:34.237Z,9.309139
2022-10-01T11:29:34.265Z,9.309238
2022-10-01T11:30:34.293Z,9.309181
2022-10-01T11:31:34.282Z,9.309105
2022-10-01T11:32:34.279Z,9.309083
2022-10-01T11:33:34.169Z,9.309124
2022-10-01T11:34:34.168Z,9.309086
2022-10-01T11:35:34.165Z,9.309098
2022-10-01T11:36:34.347Z,9.309128
2022-10-01T11:37:34.400Z,9.309134
2022-10-01T11:38:34.119Z,9.309067
2022-10-01T11:39:34.189Z,9.309039
2022-10-01T11:40:34.197Z,9.309194
2022-10-01T11:41:34.174Z,9.309125
2022-10-01T11:42:34.141Z,9.309053
2022-10-01T11:43:34.222Z,9.309116
2022-10-01T11:44:34.113Z,9.309136